sensor_id;sensor_type;location;lat;lon;timestamp;temperature;humidity
54930;DHT22;40833;53.238;6.576;2023-09-18T00:00:47;16.80;99.90
54930;DHT22;40833;53.238;6.576;2023-09-18T00:03:20;16.80;99.90
54930;DHT22;40833;53.238;6.576;2023-09-18T00:05:47;16.70;99.90
54930;DHT22;40833;53.238;6.576;2023-09-18T00:08:16;16.70;99.90
54930;DHT22;40833;53.238;6.576;2023-09-18T00:10:42;16.70;99.90
54930;DHT22;40833;53.238;6.576;2023-09-18T00:13:11;16.70;99.90
54930;DHT22;40833;53.238;6.576;2023-09-18T00:15:37;16.70;99.90
54930;DHT22;40833;53.238;6.576;2023-09-18T00:18:03;16.70;99.90
54930;DHT22;40833;53.238;6.576;2023-09-18T00:20:29;16.60;99.90
54930;DHT22;40833;53.238;6.576;2023-09-18T00:22:55;16.60;99.90
54930;DHT22;40833;53.238;6.576;2023-09-18T00:25:21;16.60;99.90
54930;DHT22;40833;53.238;6.576;2023-09-18T00:27:47;16.60;99.90
54930;DHT22;40833;53.238;6.576;2023-09-18T00:30:13;16.60;99.90
54930;DHT22;40833;53.238;6.576;2023-09-18T00:32:38;16.60;99.90
54930;DHT22;40833;53.238;6.576;2023-09-18T00:35:04;16.60;99.90
54930;DHT22;40833;53.238;6.576;2023-09-18T00:37:30;16.50;99.90
54930;DHT22;40833;53.238;6.576;2023-09-18T00:39:56;16.50;99.90
54930;DHT22;40833;53.238;6.576;2023-09-18T00:42:21;16.50;99.90
54930;DHT22;40833;53.238;6.576;2023-09-18T00:44:48;16.60;99.90
54930;DHT22;40833;53.238;6.576;2023-09-18T00:47:15;16.50;99.90
54930;DHT22;40833;53.238;6.576;2023-09-18T00:49:46;16.50;99.90
54930;DHT22;40833;53.238;6.576;2023-09-18T00:52:13;16.50;99.90
54930;DHT22;40833;53.238;6.576;2023-09-18T00:54:40;16.40;99.90
54930;DHT22;40833;53.238;6.576;2023-09-18T00:57:07;16.40;99.90
54930;DHT22;40833;53.238;6.576;2023-09-18T00:59:34;16.40;99.90
54930;DHT22;40833;53.238;6.576;2023-09-18T01:01:59;16.40;99.90
54930;DHT22;40833;53.238;6.576;2023-09-18T01:04:26;16.50;99.90
54930;DHT22;40833;53.238;6.576;2023-09-18T01:06:54;16.40;99.90
54930;DHT22;40833;53.238;6.576;2023-09-18T01:09:22;16.40;99.90
54930;DHT22;40833;53.238;6.576;2023-09-18T01:14:44;16.30;99.90
54930;DHT22;40833;53.238;6.576;2023-09-18T01:17:12;16.30;99.90
54930;DHT22;40833;53.238;6.576;2023-09-18T01:19:45;16.30;99.90
54930;DHT22;40833;53.238;6.576;2023-09-18T01:22:16;16.30;99.90
54930;DHT22;40833;53.238;6.576;2023-09-18T01:24:43;16.20;99.90
54930;DHT22;40833;53.238;6.576;2023-09-18T01:27:11;16.20;99.90
54930;DHT22;40833;53.238;6.576;2023-09-18T01:29:38;16.30;99.90
54930;DHT22;40833;53.238;6.576;2023-09-18T01:32:04;16.30;99.90
54930;DHT22;40833;53.238;6.576;2023-09-18T01:34:33;16.30;99.90
54930;DHT22;40833;53.238;6.576;2023-09-18T01:37:03;16.30;99.90
54930;DHT22;40833;53.238;6.576;2023-09-18T01:39:31;16.20;99.90
54930;DHT22;40833;53.238;6.576;2023-09-18T01:42:04;16.20;99.90
54930;DHT22;40833;53.238;6.576;2023-09-18T01:44:34;16.10;99.90
54930;DHT22;40833;53.238;6.576;2023-09-18T01:47:02;16.20;99.90
54930;DHT22;40833;53.238;6.576;2023-09-18T01:49:30;16.10;99.90
54930;DHT22;40833;53.238;6.576;2023-09-18T01:51:56;16.10;99.90
54930;DHT22;40833;53.238;6.576;2023-09-18T01:54:22;16.00;99.90
54930;DHT22;40833;53.238;6.576;2023-09-18T01:56:48;16.00;99.90
54930;DHT22;40833;53.238;6.576;2023-09-18T01:59:14;16.10;99.90
54930;DHT22;40833;53.238;6.576;2023-09-18T02:01:39;16.10;99.90
54930;DHT22;40833;53.238;6.576;2023-09-18T02:04:05;16.10;99.90
54930;DHT22;40833;53.238;6.576;2023-09-18T02:06:31;16.00;99.90
54930;DHT22;40833;53.238;6.576;2023-09-18T02:08:57;16.00;99.90
54930;DHT22;40833;53.238;6.576;2023-09-18T02:11:22;16.10;99.90
54930;DHT22;40833;53.238;6.576;2023-09-18T02:13:48;16.10;99.90
54930;DHT22;40833;53.238;6.576;2023-09-18T02:16:14;16.10;99.90
54930;DHT22;40833;53.238;6.576;2023-09-18T02:18:39;16.20;99.90
54930;DHT22;40833;53.238;6.576;2023-09-18T02:21:05;16.20;99.90
54930;DHT22;40833;53.238;6.576;2023-09-18T02:23:30;16.20;99.90
54930;DHT22;40833;53.238;6.576;2023-09-18T02:25:57;16.20;99.90
54930;DHT22;40833;53.238;6.576;2023-09-18T02:28:23;16.30;99.90
54930;DHT22;40833;53.238;6.576;2023-09-18T02:30:49;16.30;99.90
54930;DHT22;40833;53.238;6.576;2023-09-18T02:33:15;16.30;99.90
54930;DHT22;40833;53.238;6.576;2023-09-18T02:35:41;16.30;99.90
54930;DHT22;40833;53.238;6.576;2023-09-18T02:38:08;16.30;99.90
54930;DHT22;40833;53.238;6.576;2023-09-18T02:40:34;16.30;99.90
54930;DHT22;40833;53.238;6.576;2023-09-18T02:43:00;16.30;99.90
54930;DHT22;40833;53.238;6.576;2023-09-18T02:45:27;16.30;99.90
54930;DHT22;40833;53.238;6.576;2023-09-18T02:47:53;16.30;99.90
54930;DHT22;40833;53.238;6.576;2023-09-18T02:50:19;16.30;99.90
54930;DHT22;40833;53.238;6.576;2023-09-18T02:52:44;16.40;99.90
54930;DHT22;40833;53.238;6.576;2023-09-18T02:55:10;16.30;99.90
54930;DHT22;40833;53.238;6.576;2023-09-18T02:57:36;16.30;99.90
54930;DHT22;40833;53.238;6.576;2023-09-18T03:00:02;16.30;99.90
54930;DHT22;40833;53.238;6.576;2023-09-18T03:02:28;16.30;99.90
54930;DHT22;40833;53.238;6.576;2023-09-18T03:04:55;16.40;99.90
54930;DHT22;40833;53.238;6.576;2023-09-18T03:07:21;16.40;99.90
54930;DHT22;40833;53.238;6.576;2023-09-18T03:09:47;16.40;99.90
54930;DHT22;40833;53.238;6.576;2023-09-18T03:12:13;16.40;99.90
54930;DHT22;40833;53.238;6.576;2023-09-18T03:14:39;16.40;99.90
54930;DHT22;40833;53.238;6.576;2023-09-18T03:17:05;16.40;99.90
54930;DHT22;40833;53.238;6.576;2023-09-18T03:19:30;16.50;99.90
54930;DHT22;40833;53.238;6.576;2023-09-18T03:21:56;16.40;99.90
54930;DHT22;40833;53.238;6.576;2023-09-18T03:24:22;16.40;99.90
54930;DHT22;40833;53.238;6.576;2023-09-18T03:26:47;16.50;99.90
54930;DHT22;40833;53.238;6.576;2023-09-18T03:29:14;16.50;99.90
54930;DHT22;40833;53.238;6.576;2023-09-18T03:31:40;16.40;99.90
54930;DHT22;40833;53.238;6.576;2023-09-18T03:34:06;16.40;99.90
54930;DHT22;40833;53.238;6.576;2023-09-18T03:36:31;16.40;99.90
54930;DHT22;40833;53.238;6.576;2023-09-18T03:38:58;16.40;99.90
54930;DHT22;40833;53.238;6.576;2023-09-18T03:41:23;16.30;99.90
54930;DHT22;40833;53.238;6.576;2023-09-18T03:43:50;16.50;99.90
54930;DHT22;40833;53.238;6.576;2023-09-18T03:46:16;16.40;99.90
54930;DHT22;40833;53.238;6.576;2023-09-18T03:48:41;16.40;99.90
54930;DHT22;40833;53.238;6.576;2023-09-18T03:51:07;16.50;99.90
54930;DHT22;40833;53.238;6.576;2023-09-18T03:53:34;16.40;99.90
54930;DHT22;40833;53.238;6.576;2023-09-18T03:56:00;16.50;99.90
54930;DHT22;40833;53.238;6.576;2023-09-18T03:58:25;16.50;99.90
54930;DHT22;40833;53.238;6.576;2023-09-18T04:00:52;16.50;99.90
54930;DHT22;40833;53.238;6.576;2023-09-18T04:03:18;16.40;99.90
54930;DHT22;40833;53.238;6.576;2023-09-18T04:05:44;16.50;99.90
54930;DHT22;40833;53.238;6.576;2023-09-18T04:08:10;16.50;99.90
54930;DHT22;40833;53.238;6.576;2023-09-18T04:10:36;16.50;99.90
54930;DHT22;40833;53.238;6.576;2023-09-18T04:13:02;16.50;99.90
54930;DHT22;40833;53.238;6.576;2023-09-18T04:15:28;16.50;99.90
54930;DHT22;40833;53.238;6.576;2023-09-18T04:17:56;16.50;99.90
54930;DHT22;40833;53.238;6.576;2023-09-18T04:20:21;16.60;99.90
54930;DHT22;40833;53.238;6.576;2023-09-18T04:23:24;16.50;99.90
54930;DHT22;40833;53.238;6.576;2023-09-18T04:25:51;16.60;99.90
54930;DHT22;40833;53.238;6.576;2023-09-18T04:28:18;16.60;99.90
54930;DHT22;40833;53.238;6.576;2023-09-18T04:30:45;16.50;99.90
54930;DHT22;40833;53.238;6.576;2023-09-18T04:33:11;16.60;99.90
54930;DHT22;40833;53.238;6.576;2023-09-18T04:35:38;16.50;99.90
54930;DHT22;40833;53.238;6.576;2023-09-18T04:38:09;16.50;99.90
54930;DHT22;40833;53.238;6.576;2023-09-18T04:40:36;16.60;99.90
54930;DHT22;40833;53.238;6.576;2023-09-18T04:43:02;16.60;99.90
54930;DHT22;40833;53.238;6.576;2023-09-18T04:45:30;16.50;99.90
54930;DHT22;40833;53.238;6.576;2023-09-18T04:47:56;16.70;99.90
54930;DHT22;40833;53.238;6.576;2023-09-18T04:50:22;16.60;99.90
54930;DHT22;40833;53.238;6.576;2023-09-18T04:52:48;16.60;99.90
54930;DHT22;40833;53.238;6.576;2023-09-18T04:55:16;16.60;99.90
54930;DHT22;40833;53.238;6.576;2023-09-18T04:57:42;16.70;99.90
54930;DHT22;40833;53.238;6.576;2023-09-18T05:00:08;16.70;99.90
54930;DHT22;40833;53.238;6.576;2023-09-18T05:02:35;16.70;99.90
54930;DHT22;40833;53.238;6.576;2023-09-18T05:05:01;16.60;99.90
54930;DHT22;40833;53.238;6.576;2023-09-18T05:07:28;16.60;99.90
54930;DHT22;40833;53.238;6.576;2023-09-18T05:09:54;16.70;99.90
54930;DHT22;40833;53.238;6.576;2023-09-18T05:12:20;16.70;99.90
54930;DHT22;40833;53.238;6.576;2023-09-18T05:14:45;16.80;99.90
54930;DHT22;40833;53.238;6.576;2023-09-18T05:17:15;16.80;99.90
54930;DHT22;40833;53.238;6.576;2023-09-18T05:19:42;16.80;99.90
54930;DHT22;40833;53.238;6.576;2023-09-18T05:22:11;16.80;99.90
54930;DHT22;40833;53.238;6.576;2023-09-18T05:24:40;16.80;99.90
54930;DHT22;40833;53.238;6.576;2023-09-18T05:27:06;16.80;99.90
54930;DHT22;40833;53.238;6.576;2023-09-18T05:29:33;17.00;99.90
54930;DHT22;40833;53.238;6.576;2023-09-18T05:31:58;16.90;99.90
54930;DHT22;40833;53.238;6.576;2023-09-18T05:34:24;17.00;99.90
54930;DHT22;40833;53.238;6.576;2023-09-18T05:36:50;17.00;99.90
54930;DHT22;40833;53.238;6.576;2023-09-18T05:39:16;17.00;99.90
54930;DHT22;40833;53.238;6.576;2023-09-18T05:41:42;17.00;99.90
54930;DHT22;40833;53.238;6.576;2023-09-18T05:44:08;17.00;99.90
54930;DHT22;40833;53.238;6.576;2023-09-18T05:46:35;17.10;99.90
54930;DHT22;40833;53.238;6.576;2023-09-18T05:49:01;17.10;99.90
54930;DHT22;40833;53.238;6.576;2023-09-18T05:51:27;17.10;99.90
54930;DHT22;40833;53.238;6.576;2023-09-18T05:53:53;17.10;99.90
54930;DHT22;40833;53.238;6.576;2023-09-18T05:56:18;17.20;99.90
54930;DHT22;40833;53.238;6.576;2023-09-18T05:58:44;17.20;99.90
54930;DHT22;40833;53.238;6.576;2023-09-18T06:01:10;17.30;99.90
54930;DHT22;40833;53.238;6.576;2023-09-18T06:03:36;17.30;99.90
54930;DHT22;40833;53.238;6.576;2023-09-18T06:06:02;17.40;99.90
54930;DHT22;40833;53.238;6.576;2023-09-18T06:08:29;17.40;99.90
54930;DHT22;40833;53.238;6.576;2023-09-18T06:10:56;17.40;99.90
54930;DHT22;40833;53.238;6.576;2023-09-18T06:13:24;17.50;99.90
54930;DHT22;40833;53.238;6.576;2023-09-18T06:15:50;17.60;99.90
54930;DHT22;40833;53.238;6.576;2023-09-18T06:18:18;17.60;99.90
54930;DHT22;40833;53.238;6.576;2023-09-18T06:20:46;17.50;99.90
54930;DHT22;40833;53.238;6.576;2023-09-18T06:23:12;17.60;99.90
54930;DHT22;40833;53.238;6.576;2023-09-18T06:25:38;17.60;99.90
54930;DHT22;40833;53.238;6.576;2023-09-18T06:28:05;17.70;99.90
54930;DHT22;40833;53.238;6.576;2023-09-18T06:30:31;17.70;99.90
54930;DHT22;40833;53.238;6.576;2023-09-18T06:33:01;17.70;99.90
54930;DHT22;40833;53.238;6.576;2023-09-18T06:35:28;17.70;99.90
54930;DHT22;40833;53.238;6.576;2023-09-18T06:37:53;17.70;99.90
54930;DHT22;40833;53.238;6.576;2023-09-18T06:40:24;17.70;99.90
54930;DHT22;40833;53.238;6.576;2023-09-18T06:42:50;17.80;99.90
54930;DHT22;40833;53.238;6.576;2023-09-18T06:45:17;17.80;99.90
54930;DHT22;40833;53.238;6.576;2023-09-18T06:47:43;17.80;99.90
54930;DHT22;40833;53.238;6.576;2023-09-18T06:50:09;17.80;99.90
54930;DHT22;40833;53.238;6.576;2023-09-18T06:52:37;17.90;99.90
54930;DHT22;40833;53.238;6.576;2023-09-18T06:55:03;17.90;99.90
54930;DHT22;40833;53.238;6.576;2023-09-18T06:57:28;18.00;99.90
54930;DHT22;40833;53.238;6.576;2023-09-18T06:59:54;17.90;99.90
54930;DHT22;40833;53.238;6.576;2023-09-18T07:02:20;18.00;99.90
54930;DHT22;40833;53.238;6.576;2023-09-18T07:04:46;18.00;99.90
54930;DHT22;40833;53.238;6.576;2023-09-18T07:07:12;18.00;99.90
54930;DHT22;40833;53.238;6.576;2023-09-18T07:09:39;18.00;99.90
54930;DHT22;40833;53.238;6.576;2023-09-18T07:12:05;18.10;99.90
54930;DHT22;40833;53.238;6.576;2023-09-18T07:14:31;18.10;99.90
54930;DHT22;40833;53.238;6.576;2023-09-18T07:16:57;18.10;99.90
54930;DHT22;40833;53.238;6.576;2023-09-18T07:19:22;18.10;99.90
54930;DHT22;40833;53.238;6.576;2023-09-18T07:21:48;18.20;99.90
54930;DHT22;40833;53.238;6.576;2023-09-18T07:24:15;18.20;99.90
54930;DHT22;40833;53.238;6.576;2023-09-18T07:26:44;18.10;99.90
54930;DHT22;40833;53.238;6.576;2023-09-18T07:29:10;18.20;99.90
54930;DHT22;40833;53.238;6.576;2023-09-18T07:31:36;18.20;99.90
54930;DHT22;40833;53.238;6.576;2023-09-18T07:34:02;18.10;99.90
54930;DHT22;40833;53.238;6.576;2023-09-18T07:36:29;18.10;99.90
54930;DHT22;40833;53.238;6.576;2023-09-18T07:38:55;18.10;99.90
54930;DHT22;40833;53.238;6.576;2023-09-18T07:41:22;18.10;99.90
54930;DHT22;40833;53.238;6.576;2023-09-18T07:43:48;18.00;99.90
54930;DHT22;40833;53.238;6.576;2023-09-18T07:46:13;18.10;99.90
54930;DHT22;40833;53.238;6.576;2023-09-18T07:48:39;17.90;99.90
54930;DHT22;40833;53.238;6.576;2023-09-18T07:51:05;18.00;99.90
54930;DHT22;40833;53.238;6.576;2023-09-18T07:53:31;18.00;99.90
54930;DHT22;40833;53.238;6.576;2023-09-18T07:55:58;17.90;99.90
54930;DHT22;40833;53.238;6.576;2023-09-18T07:58:25;18.00;99.90
54930;DHT22;40833;53.238;6.576;2023-09-18T08:00:55;17.90;99.90
54930;DHT22;40833;53.238;6.576;2023-09-18T08:03:20;17.90;99.90
54930;DHT22;40833;53.238;6.576;2023-09-18T08:05:52;17.90;99.90
54930;DHT22;40833;53.238;6.576;2023-09-18T08:08:20;18.00;99.90
54930;DHT22;40833;53.238;6.576;2023-09-18T08:10:46;17.90;99.90
54930;DHT22;40833;53.238;6.576;2023-09-18T08:13:13;18.00;99.90
54930;DHT22;40833;53.238;6.576;2023-09-18T08:15:39;18.00;99.90
54930;DHT22;40833;53.238;6.576;2023-09-18T08:18:05;18.10;99.90
54930;DHT22;40833;53.238;6.576;2023-09-18T08:20:31;18.10;99.90
54930;DHT22;40833;53.238;6.576;2023-09-18T08:22:58;18.10;99.90
54930;DHT22;40833;53.238;6.576;2023-09-18T08:25:27;18.20;99.90
54930;DHT22;40833;53.238;6.576;2023-09-18T08:27:52;18.20;99.90
54930;DHT22;40833;53.238;6.576;2023-09-18T08:30:18;18.20;99.90
54930;DHT22;40833;53.238;6.576;2023-09-18T08:32:46;18.20;99.90
54930;DHT22;40833;53.238;6.576;2023-09-18T08:35:13;18.20;99.90
54930;DHT22;40833;53.238;6.576;2023-09-18T08:37:42;18.20;99.90
54930;DHT22;40833;53.238;6.576;2023-09-18T08:40:14;18.20;99.90
54930;DHT22;40833;53.238;6.576;2023-09-18T08:42:52;18.20;99.90
54930;DHT22;40833;53.238;6.576;2023-09-18T08:45:48;18.20;99.90
54930;DHT22;40833;53.238;6.576;2023-09-18T08:48:15;18.30;99.90
54930;DHT22;40833;53.238;6.576;2023-09-18T08:50:41;18.20;99.90
54930;DHT22;40833;53.238;6.576;2023-09-18T08:53:08;18.20;99.90
54930;DHT22;40833;53.238;6.576;2023-09-18T08:55:34;18.20;99.90
54930;DHT22;40833;53.238;6.576;2023-09-18T08:58:00;18.20;99.90
54930;DHT22;40833;53.238;6.576;2023-09-18T09:00:26;18.40;99.90
54930;DHT22;40833;53.238;6.576;2023-09-18T09:02:52;18.40;99.90
54930;DHT22;40833;53.238;6.576;2023-09-18T09:05:23;18.50;99.90
54930;DHT22;40833;53.238;6.576;2023-09-18T09:07:49;18.50;99.90
54930;DHT22;40833;53.238;6.576;2023-09-18T09:10:16;18.60;99.90
54930;DHT22;40833;53.238;6.576;2023-09-18T09:15:22;18.60;99.90
54930;DHT22;40833;53.238;6.576;2023-09-18T09:17:48;18.60;99.90
54930;DHT22;40833;53.238;6.576;2023-09-18T09:20:15;18.70;99.90
54930;DHT22;40833;53.238;6.576;2023-09-18T09:22:42;18.50;99.90
54930;DHT22;40833;53.238;6.576;2023-09-18T09:25:27;18.60;99.90
54930;DHT22;40833;53.238;6.576;2023-09-18T09:27:54;18.70;99.90
54930;DHT22;40833;53.238;6.576;2023-09-18T09:30:29;18.70;99.90
54930;DHT22;40833;53.238;6.576;2023-09-18T09:32:57;18.80;99.90
54930;DHT22;40833;53.238;6.576;2023-09-18T09:35:27;18.80;99.90
54930;DHT22;40833;53.238;6.576;2023-09-18T09:37:56;18.90;99.90
54930;DHT22;40833;53.238;6.576;2023-09-18T09:40:24;18.90;99.90
54930;DHT22;40833;53.238;6.576;2023-09-18T09:42:52;19.10;99.90
54930;DHT22;40833;53.238;6.576;2023-09-18T09:45:20;19.00;99.90
54930;DHT22;40833;53.238;6.576;2023-09-18T09:47:46;19.10;99.90
54930;DHT22;40833;53.238;6.576;2023-09-18T09:50:14;19.20;99.90
54930;DHT22;40833;53.238;6.576;2023-09-18T09:52:47;19.20;99.90
54930;DHT22;40833;53.238;6.576;2023-09-18T09:55:24;19.20;99.90
54930;DHT22;40833;53.238;6.576;2023-09-18T09:57:55;19.40;99.90
54930;DHT22;40833;53.238;6.576;2023-09-18T10:00:46;19.30;99.90
54930;DHT22;40833;53.238;6.576;2023-09-18T10:03:18;19.20;99.90
54930;DHT22;40833;53.238;6.576;2023-09-18T10:05:46;19.30;99.90
54930;DHT22;40833;53.238;6.576;2023-09-18T10:08:17;19.50;99.90
54930;DHT22;40833;53.238;6.576;2023-09-18T10:10:46;19.50;99.90
54930;DHT22;40833;53.238;6.576;2023-09-18T10:13:53;19.60;99.90
54930;DHT22;40833;53.238;6.576;2023-09-18T10:16:12;19.70;99.90
54930;DHT22;40833;53.238;6.576;2023-09-18T10:18:44;19.70;99.90
54930;DHT22;40833;53.238;6.576;2023-09-18T10:24:08;20.00;99.90
54930;DHT22;40833;53.238;6.576;2023-09-18T10:26:43;20.10;99.90
54930;DHT22;40833;53.238;6.576;2023-09-18T10:29:13;20.20;99.90
54930;DHT22;40833;53.238;6.576;2023-09-18T10:31:39;20.30;99.90
54930;DHT22;40833;53.238;6.576;2023-09-18T10:34:08;20.40;99.90
54930;DHT22;40833;53.238;6.576;2023-09-18T10:36:34;20.40;99.90
54930;DHT22;40833;53.238;6.576;2023-09-18T10:39:02;20.60;99.90
54930;DHT22;40833;53.238;6.576;2023-09-18T10:41:33;20.70;99.90
54930;DHT22;40833;53.238;6.576;2023-09-18T10:44:00;20.70;99.90
54930;DHT22;40833;53.238;6.576;2023-09-18T10:46:27;20.70;99.90
54930;DHT22;40833;53.238;6.576;2023-09-18T10:48:53;20.80;99.90
54930;DHT22;40833;53.238;6.576;2023-09-18T10:51:23;20.90;99.90
54930;DHT22;40833;53.238;6.576;2023-09-18T10:53:49;21.00;99.90
54930;DHT22;40833;53.238;6.576;2023-09-18T10:56:15;21.20;99.90
54930;DHT22;40833;53.238;6.576;2023-09-18T10:58:42;21.30;99.90
54930;DHT22;40833;53.238;6.576;2023-09-18T11:01:11;21.40;99.90
54930;DHT22;40833;53.238;6.576;2023-09-18T11:03:38;21.40;99.90
54930;DHT22;40833;53.238;6.576;2023-09-18T11:06:10;21.30;99.90
54930;DHT22;40833;53.238;6.576;2023-09-18T11:08:53;21.40;99.90
54930;DHT22;40833;53.238;6.576;2023-09-18T11:11:26;21.30;99.90
54930;DHT22;40833;53.238;6.576;2023-09-18T11:13:56;21.30;99.90
54930;DHT22;40833;53.238;6.576;2023-09-18T11:21:27;21.70;99.90
54930;DHT22;40833;53.238;6.576;2023-09-18T11:26:28;21.80;99.90
54930;DHT22;40833;53.238;6.576;2023-09-18T11:28:53;21.80;99.90
54930;DHT22;40833;53.238;6.576;2023-09-18T11:31:19;21.80;99.90
54930;DHT22;40833;53.238;6.576;2023-09-18T11:33:48;21.80;99.90
54930;DHT22;40833;53.238;6.576;2023-09-18T11:38:52;21.80;99.90
54930;DHT22;40833;53.238;6.576;2023-09-18T11:41:36;21.80;99.90
54930;DHT22;40833;53.238;6.576;2023-09-18T11:46:51;21.90;99.90
54930;DHT22;40833;53.238;6.576;2023-09-18T11:49:24;22.10;99.90
54930;DHT22;40833;53.238;6.576;2023-09-18T11:51:54;22.20;99.90
54930;DHT22;40833;53.238;6.576;2023-09-18T11:54:20;22.20;99.90
54930;DHT22;40833;53.238;6.576;2023-09-18T11:56:47;22.20;99.90
54930;DHT22;40833;53.238;6.576;2023-09-18T11:59:12;22.10;99.90
54930;DHT22;40833;53.238;6.576;2023-09-18T12:01:38;22.10;99.90
54930;DHT22;40833;53.238;6.576;2023-09-18T12:04:12;22.00;99.90
54930;DHT22;40833;53.238;6.576;2023-09-18T12:06:41;22.00;99.90
54930;DHT22;40833;53.238;6.576;2023-09-18T12:09:07;22.00;99.90
54930;DHT22;40833;53.238;6.576;2023-09-18T12:11:34;21.90;99.90
54930;DHT22;40833;53.238;6.576;2023-09-18T12:14:01;21.90;99.90
54930;DHT22;40833;53.238;6.576;2023-09-18T12:16:28;22.00;99.90
54930;DHT22;40833;53.238;6.576;2023-09-18T12:18:53;22.10;99.90
54930;DHT22;40833;53.238;6.576;2023-09-18T12:21:20;22.30;99.90
54930;DHT22;40833;53.238;6.576;2023-09-18T12:23:46;22.50;99.90
54930;DHT22;40833;53.238;6.576;2023-09-18T12:26:13;22.80;99.90
54930;DHT22;40833;53.238;6.576;2023-09-18T12:28:40;22.90;99.90
54930;DHT22;40833;53.238;6.576;2023-09-18T12:31:16;22.90;99.90
54930;DHT22;40833;53.238;6.576;2023-09-18T12:33:43;23.00;99.90
54930;DHT22;40833;53.238;6.576;2023-09-18T12:36:14;22.90;99.90
54930;DHT22;40833;53.238;6.576;2023-09-18T12:38:55;22.90;99.90
54930;DHT22;40833;53.238;6.576;2023-09-18T12:41:23;22.80;99.90
54930;DHT22;40833;53.238;6.576;2023-09-18T12:43:49;22.90;99.90
54930;DHT22;40833;53.238;6.576;2023-09-18T12:46:15;23.10;99.90
54930;DHT22;40833;53.238;6.576;2023-09-18T12:48:41;23.10;99.90
54930;DHT22;40833;53.238;6.576;2023-09-18T12:51:12;22.90;99.90
54930;DHT22;40833;53.238;6.576;2023-09-18T12:53:37;22.70;99.90
54930;DHT22;40833;53.238;6.576;2023-09-18T12:56:11;22.50;99.90
54930;DHT22;40833;53.238;6.576;2023-09-18T12:58:38;22.30;99.90
54930;DHT22;40833;53.238;6.576;2023-09-18T13:01:06;22.10;99.90
54930;DHT22;40833;53.238;6.576;2023-09-18T13:03:45;22.10;99.90
54930;DHT22;40833;53.238;6.576;2023-09-18T13:06:15;22.30;99.90
54930;DHT22;40833;53.238;6.576;2023-09-18T13:08:43;22.70;99.90
54930;DHT22;40833;53.238;6.576;2023-09-18T13:11:09;23.10;99.90
54930;DHT22;40833;53.238;6.576;2023-09-18T13:13:37;23.30;99.90
54930;DHT22;40833;53.238;6.576;2023-09-18T13:16:08;23.30;99.90
54930;DHT22;40833;53.238;6.576;2023-09-18T13:18:37;23.20;99.90
54930;DHT22;40833;53.238;6.576;2023-09-18T13:21:14;23.20;99.90
54930;DHT22;40833;53.238;6.576;2023-09-18T13:23:40;23.20;99.90
54930;DHT22;40833;53.238;6.576;2023-09-18T13:26:07;23.40;99.90
54930;DHT22;40833;53.238;6.576;2023-09-18T13:28:36;23.60;99.90
54930;DHT22;40833;53.238;6.576;2023-09-18T13:31:05;23.70;99.90
54930;DHT22;40833;53.238;6.576;2023-09-18T13:33:33;23.80;99.90
54930;DHT22;40833;53.238;6.576;2023-09-18T13:35:59;23.90;99.90
54930;DHT22;40833;53.238;6.576;2023-09-18T13:38:25;23.70;99.90
54930;DHT22;40833;53.238;6.576;2023-09-18T13:40:53;23.70;99.90
54930;DHT22;40833;53.238;6.576;2023-09-18T13:43:20;23.70;99.90
54930;DHT22;40833;53.238;6.576;2023-09-18T13:45:48;23.70;99.90
54930;DHT22;40833;53.238;6.576;2023-09-18T13:48:17;23.80;99.90
54930;DHT22;40833;53.238;6.576;2023-09-18T13:50:43;23.80;99.90
54930;DHT22;40833;53.238;6.576;2023-09-18T13:53:09;23.90;99.90
54930;DHT22;40833;53.238;6.576;2023-09-18T13:55:35;24.00;99.90
54930;DHT22;40833;53.238;6.576;2023-09-18T13:58:01;24.00;99.90
54930;DHT22;40833;53.238;6.576;2023-09-18T14:00:30;24.20;99.90
54930;DHT22;40833;53.238;6.576;2023-09-18T14:02:56;24.40;99.90
54930;DHT22;40833;53.238;6.576;2023-09-18T14:05:22;24.60;99.90
54930;DHT22;40833;53.238;6.576;2023-09-18T14:07:48;24.70;99.90
54930;DHT22;40833;53.238;6.576;2023-09-18T14:10:14;24.70;99.90
54930;DHT22;40833;53.238;6.576;2023-09-18T14:12:42;24.90;99.90
54930;DHT22;40833;53.238;6.576;2023-09-18T14:15:09;24.90;99.90
54930;DHT22;40833;53.238;6.576;2023-09-18T14:17:35;24.80;99.90
54930;DHT22;40833;53.238;6.576;2023-09-18T14:20:03;24.90;99.90
54930;DHT22;40833;53.238;6.576;2023-09-18T14:22:34;24.60;99.90
54930;DHT22;40833;53.238;6.576;2023-09-18T14:25:00;24.10;99.90
54930;DHT22;40833;53.238;6.576;2023-09-18T14:27:29;23.80;99.90
54930;DHT22;40833;53.238;6.576;2023-09-18T14:29:55;23.50;99.90
54930;DHT22;40833;53.238;6.576;2023-09-18T14:32:21;23.70;99.90
54930;DHT22;40833;53.238;6.576;2023-09-18T14:34:47;24.00;99.90
54930;DHT22;40833;53.238;6.576;2023-09-18T14:37:13;24.00;99.90
54930;DHT22;40833;53.238;6.576;2023-09-18T14:39:39;23.80;99.90
54930;DHT22;40833;53.238;6.576;2023-09-18T14:42:05;23.70;99.90
54930;DHT22;40833;53.238;6.576;2023-09-18T14:44:30;23.60;99.90
54930;DHT22;40833;53.238;6.576;2023-09-18T14:46:57;23.40;99.90
54930;DHT22;40833;53.238;6.576;2023-09-18T14:49:23;23.30;99.90
54930;DHT22;40833;53.238;6.576;2023-09-18T14:51:49;23.20;99.90
54930;DHT22;40833;53.238;6.576;2023-09-18T14:54:19;23.30;99.90
54930;DHT22;40833;53.238;6.576;2023-09-18T14:56:45;23.20;99.90
54930;DHT22;40833;53.238;6.576;2023-09-18T14:59:12;23.10;99.90
54930;DHT22;40833;53.238;6.576;2023-09-18T15:01:38;23.10;99.90
54930;DHT22;40833;53.238;6.576;2023-09-18T15:04:04;23.40;99.90
54930;DHT22;40833;53.238;6.576;2023-09-18T15:06:29;23.60;99.90
54930;DHT22;40833;53.238;6.576;2023-09-18T15:08:55;23.90;99.90
54930;DHT22;40833;53.238;6.576;2023-09-18T15:11:21;24.20;99.90
54930;DHT22;40833;53.238;6.576;2023-09-18T15:13:47;24.40;99.90
54930;DHT22;40833;53.238;6.576;2023-09-18T15:16:12;24.40;99.90
54930;DHT22;40833;53.238;6.576;2023-09-18T15:18:38;24.50;99.90
54930;DHT22;40833;53.238;6.576;2023-09-18T15:21:05;24.70;99.90
54930;DHT22;40833;53.238;6.576;2023-09-18T15:23:31;25.00;99.90
54930;DHT22;40833;53.238;6.576;2023-09-18T15:25:56;25.20;99.90
54930;DHT22;40833;53.238;6.576;2023-09-18T15:28:26;25.40;99.90
54930;DHT22;40833;53.238;6.576;2023-09-18T15:30:54;25.60;99.90
54930;DHT22;40833;53.238;6.576;2023-09-18T15:33:20;25.80;99.90
54930;DHT22;40833;53.238;6.576;2023-09-18T15:35:51;25.90;99.90
54930;DHT22;40833;53.238;6.576;2023-09-18T15:38:18;26.10;99.90
54930;DHT22;40833;53.238;6.576;2023-09-18T15:40:43;26.30;99.90
54930;DHT22;40833;53.238;6.576;2023-09-18T15:43:09;26.40;99.90
54930;DHT22;40833;53.238;6.576;2023-09-18T15:45:35;26.50;99.90
54930;DHT22;40833;53.238;6.576;2023-09-18T15:48:02;26.40;99.90
54930;DHT22;40833;53.238;6.576;2023-09-18T15:50:32;26.30;99.90
54930;DHT22;40833;53.238;6.576;2023-09-18T15:52:58;26.20;99.90